Duchesne, Utah
Current Conditions -  °F | °C
As of 5:53 PM on Wednesday 22 Oct 2014 (Local Time) from KPUC Reporting Station
Clear Clear  
Wind Chill: 64°   Ceiling: Unl
Heat Index: 64°   Visibility: 10mi
Dew Point: 24°   Wind: 12mph
Humidity: 22%   Direction: 300°WNW
Pressure: 30.15"   Gusts: NA
Location:  40.16°N, 110.4°W
Report Text: KPUC 222353Z AUTO 30010KT 10SM CLR 18/M04 A3015 RMK AO2 SLP180 T01781044 10189 20144 53001 TSNO
Loading
Personal Weather Stations






























Interactive Weather Map
Tropical Storm Tracking
New forecast layout! Learn more

10-Day Weather Forecast

Advertisements
Track Severe Weather on mobile